sensor_id;sensor_type;location;lat;lon;timestamp;P1;durP1;ratioP1;P2;durP2;ratioP2
20369;SDS011;10344;47.592;9.600;2024-01-11T00:01:16;29.57;;;16.20;;
20369;SDS011;10344;47.592;9.600;2024-01-11T00:03:41;30.27;;;17.17;;
20369;SDS011;10344;47.592;9.600;2024-01-11T00:06:07;29.77;;;16.83;;
20369;SDS011;10344;47.592;9.600;2024-01-11T00:08:35;29.13;;;15.88;;
20369;SDS011;10344;47.592;9.600;2024-01-11T00:11:00;29.80;;;16.67;;
20369;SDS011;10344;47.592;9.600;2024-01-11T00:13:28;30.17;;;17.07;;
20369;SDS011;10344;47.592;9.600;2024-01-11T00:15:54;30.65;;;16.92;;
20369;SDS011;10344;47.592;9.600;2024-01-11T00:18:22;30.75;;;17.67;;
20369;SDS011;10344;47.592;9.600;2024-01-11T00:20:48;28.30;;;16.42;;
20369;SDS011;10344;47.592;9.600;2024-01-11T00:23:13;33.00;;;17.60;;
20369;SDS011;10344;47.592;9.600;2024-01-11T00:25:39;31.95;;;17.45;;
20369;SDS011;10344;47.592;9.600;2024-01-11T00:28:04;32.50;;;17.03;;
20369;SDS011;10344;47.592;9.600;2024-01-11T00:30:32;30.88;;;17.10;;
20369;SDS011;10344;47.592;9.600;2024-01-11T00:32:58;33.60;;;17.80;;
20369;SDS011;10344;47.592;9.600;2024-01-11T00:35:24;31.33;;;16.67;;
20369;SDS011;10344;47.592;9.600;2024-01-11T00:37:49;30.92;;;16.38;;
20369;SDS011;10344;47.592;9.600;2024-01-11T00:40:15;31.50;;;17.38;;
20369;SDS011;10344;47.592;9.600;2024-01-11T00:42:43;32.22;;;17.48;;
20369;SDS011;10344;47.592;9.600;2024-01-11T00:45:11;30.08;;;16.85;;
20369;SDS011;10344;47.592;9.600;2024-01-11T00:47:37;30.33;;;16.57;;
20369;SDS011;10344;47.592;9.600;2024-01-11T00:50:03;32.55;;;17.27;;
20369;SDS011;10344;47.592;9.600;2024-01-11T00:52:31;28.77;;;16.58;;
20369;SDS011;10344;47.592;9.600;2024-01-11T00:54:58;29.20;;;16.52;;
20369;SDS011;10344;47.592;9.600;2024-01-11T00:57:26;34.80;;;18.17;;
20369;SDS011;10344;47.592;9.600;2024-01-11T00:59:52;33.13;;;17.73;;
20369;SDS011;10344;47.592;9.600;2024-01-11T01:02:19;33.90;;;17.92;;
20369;SDS011;10344;47.592;9.600;2024-01-11T01:04:45;30.60;;;17.33;;
20369;SDS011;10344;47.592;9.600;2024-01-11T01:07:11;34.70;;;17.52;;
20369;SDS011;10344;47.592;9.600;2024-01-11T01:09:36;34.87;;;18.37;;
20369;SDS011;10344;47.592;9.600;2024-01-11T01:12:02;35.23;;;18.23;;
20369;SDS011;10344;47.592;9.600;2024-01-11T01:14:28;32.05;;;16.67;;
20369;SDS011;10344;47.592;9.600;2024-01-11T01:16:54;34.40;;;18.10;;
20369;SDS011;10344;47.592;9.600;2024-01-11T01:19:19;36.83;;;18.40;;
20369;SDS011;10344;47.592;9.600;2024-01-11T01:21:45;33.38;;;18.55;;
20369;SDS011;10344;47.592;9.600;2024-01-11T01:24:10;36.73;;;18.57;;
20369;SDS011;10344;47.592;9.600;2024-01-11T01:26:38;34.70;;;17.70;;
20369;SDS011;10344;47.592;9.600;2024-01-11T01:29:09;35.35;;;18.13;;
20369;SDS011;10344;47.592;9.600;2024-01-11T01:31:34;34.30;;;18.55;;
20369;SDS011;10344;47.592;9.600;2024-01-11T01:34:03;36.28;;;18.48;;
20369;SDS011;10344;47.592;9.600;2024-01-11T01:36:29;34.90;;;17.70;;
20369;SDS011;10344;47.592;9.600;2024-01-11T01:38:55;37.53;;;18.80;;
20369;SDS011;10344;47.592;9.600;2024-01-11T01:41:20;37.60;;;18.93;;
20369;SDS011;10344;47.592;9.600;2024-01-11T01:43:46;34.22;;;17.45;;
20369;SDS011;10344;47.592;9.600;2024-01-11T01:46:12;35.13;;;18.38;;
20369;SDS011;10344;47.592;9.600;2024-01-11T01:48:44;36.10;;;19.25;;
20369;SDS011;10344;47.592;9.600;2024-01-11T01:51:10;34.60;;;18.90;;
20369;SDS011;10344;47.592;9.600;2024-01-11T01:53:37;37.88;;;18.63;;
20369;SDS011;10344;47.592;9.600;2024-01-11T01:56:03;34.80;;;18.05;;
20369;SDS011;10344;47.592;9.600;2024-01-11T01:58:30;34.88;;;18.45;;
20369;SDS011;10344;47.592;9.600;2024-01-11T02:00:56;35.77;;;18.53;;
20369;SDS011;10344;47.592;9.600;2024-01-11T02:03:23;36.28;;;17.60;;
20369;SDS011;10344;47.592;9.600;2024-01-11T02:05:51;34.38;;;17.33;;
20369;SDS011;10344;47.592;9.600;2024-01-11T02:08:18;34.00;;;17.33;;
20369;SDS011;10344;47.592;9.600;2024-01-11T02:10:48;33.67;;;17.70;;
20369;SDS011;10344;47.592;9.600;2024-01-11T02:13:14;34.17;;;18.02;;
20369;SDS011;10344;47.592;9.600;2024-01-11T02:15:43;31.43;;;16.67;;
20369;SDS011;10344;47.592;9.600;2024-01-11T02:18:10;34.10;;;17.30;;
20369;SDS011;10344;47.592;9.600;2024-01-11T02:20:36;33.08;;;16.17;;
20369;SDS011;10344;47.592;9.600;2024-01-11T02:23:05;34.33;;;17.10;;
20369;SDS011;10344;47.592;9.600;2024-01-11T02:25:39;31.10;;;16.60;;
20369;SDS011;10344;47.592;9.600;2024-01-11T02:28:05;33.65;;;17.52;;
20369;SDS011;10344;47.592;9.600;2024-01-11T02:30:31;32.80;;;17.58;;
20369;SDS011;10344;47.592;9.600;2024-01-11T02:32:56;32.63;;;17.27;;
20369;SDS011;10344;47.592;9.600;2024-01-11T02:35:22;31.45;;;17.27;;
20369;SDS011;10344;47.592;9.600;2024-01-11T02:37:49;30.08;;;17.65;;
20369;SDS011;10344;47.592;9.600;2024-01-11T02:40:15;28.35;;;16.55;;
20369;SDS011;10344;47.592;9.600;2024-01-11T02:42:43;31.05;;;16.95;;
20369;SDS011;10344;47.592;9.600;2024-01-11T02:45:09;31.37;;;17.53;;
20369;SDS011;10344;47.592;9.600;2024-01-11T02:47:37;33.03;;;16.77;;
20369;SDS011;10344;47.592;9.600;2024-01-11T02:50:05;35.40;;;17.67;;
20369;SDS011;10344;47.592;9.600;2024-01-11T02:52:32;33.65;;;17.73;;
20369;SDS011;10344;47.592;9.600;2024-01-11T02:54:58;32.63;;;17.92;;
20369;SDS011;10344;47.592;9.600;2024-01-11T02:57:24;35.00;;;18.00;;
20369;SDS011;10344;47.592;9.600;2024-01-11T02:59:49;34.55;;;17.75;;
20369;SDS011;10344;47.592;9.600;2024-01-11T03:02:18;34.28;;;18.10;;
20369;SDS011;10344;47.592;9.600;2024-01-11T03:04:44;34.60;;;17.40;;
20369;SDS011;10344;47.592;9.600;2024-01-11T03:07:09;35.97;;;18.67;;
20369;SDS011;10344;47.592;9.600;2024-01-11T03:09:35;36.37;;;18.70;;
20369;SDS011;10344;47.592;9.600;2024-01-11T03:12:01;38.22;;;19.55;;
20369;SDS011;10344;47.592;9.600;2024-01-11T03:14:27;36.47;;;18.20;;
20369;SDS011;10344;47.592;9.600;2024-01-11T03:16:52;40.38;;;19.17;;
20369;SDS011;10344;47.592;9.600;2024-01-11T03:19:18;37.97;;;19.67;;
20369;SDS011;10344;47.592;9.600;2024-01-11T03:21:46;37.63;;;19.60;;
20369;SDS011;10344;47.592;9.600;2024-01-11T03:24:14;36.80;;;19.33;;
20369;SDS011;10344;47.592;9.600;2024-01-11T03:26:40;37.90;;;19.07;;
20369;SDS011;10344;47.592;9.600;2024-01-11T03:29:06;38.90;;;19.42;;
20369;SDS011;10344;47.592;9.600;2024-01-11T03:31:31;37.13;;;18.53;;
20369;SDS011;10344;47.592;9.600;2024-01-11T03:33:57;38.28;;;19.73;;
20369;SDS011;10344;47.592;9.600;2024-01-11T03:36:23;41.50;;;19.67;;
20369;SDS011;10344;47.592;9.600;2024-01-11T03:38:52;36.53;;;18.80;;
20369;SDS011;10344;47.592;9.600;2024-01-11T03:41:18;37.35;;;18.30;;
20369;SDS011;10344;47.592;9.600;2024-01-11T03:43:44;37.78;;;18.80;;
20369;SDS011;10344;47.592;9.600;2024-01-11T03:46:10;36.93;;;18.53;;
20369;SDS011;10344;47.592;9.600;2024-01-11T03:48:35;38.00;;;18.83;;
20369;SDS011;10344;47.592;9.600;2024-01-11T03:51:01;33.03;;;17.73;;
20369;SDS011;10344;47.592;9.600;2024-01-11T03:53:29;38.35;;;18.05;;
20369;SDS011;10344;47.592;9.600;2024-01-11T03:55:54;35.70;;;17.35;;
20369;SDS011;10344;47.592;9.600;2024-01-11T03:58:22;33.55;;;17.35;;
20369;SDS011;10344;47.592;9.600;2024-01-11T04:00:48;33.73;;;17.63;;
20369;SDS011;10344;47.592;9.600;2024-01-11T04:03:13;32.88;;;17.45;;
20369;SDS011;10344;47.592;9.600;2024-01-11T04:05:43;34.05;;;17.42;;
20369;SDS011;10344;47.592;9.600;2024-01-11T04:08:11;34.55;;;17.77;;
20369;SDS011;10344;47.592;9.600;2024-01-11T04:10:39;32.08;;;17.67;;
20369;SDS011;10344;47.592;9.600;2024-01-11T04:13:06;38.58;;;18.98;;
20369;SDS011;10344;47.592;9.600;2024-01-11T04:15:32;37.08;;;18.92;;
20369;SDS011;10344;47.592;9.600;2024-01-11T04:18:00;38.92;;;19.98;;
20369;SDS011;10344;47.592;9.600;2024-01-11T04:20:25;36.47;;;19.27;;
20369;SDS011;10344;47.592;9.600;2024-01-11T04:22:51;35.42;;;18.08;;
20369;SDS011;10344;47.592;9.600;2024-01-11T04:25:16;36.47;;;19.63;;
20369;SDS011;10344;47.592;9.600;2024-01-11T04:27:42;34.63;;;17.65;;
20369;SDS011;10344;47.592;9.600;2024-01-11T04:30:08;38.08;;;17.95;;
20369;SDS011;10344;47.592;9.600;2024-01-11T04:32:34;36.40;;;18.92;;
20369;SDS011;10344;47.592;9.600;2024-01-11T04:35:02;35.53;;;19.30;;
20369;SDS011;10344;47.592;9.600;2024-01-11T04:37:27;36.87;;;19.13;;
20369;SDS011;10344;47.592;9.600;2024-01-11T04:39:53;37.58;;;19.25;;
20369;SDS011;10344;47.592;9.600;2024-01-11T04:42:19;37.23;;;19.60;;
20369;SDS011;10344;47.592;9.600;2024-01-11T04:44:44;38.40;;;19.98;;
20369;SDS011;10344;47.592;9.600;2024-01-11T04:47:10;36.33;;;19.43;;
20369;SDS011;10344;47.592;9.600;2024-01-11T04:49:35;36.80;;;19.17;;
20369;SDS011;10344;47.592;9.600;2024-01-11T04:52:01;38.78;;;20.15;;
20369;SDS011;10344;47.592;9.600;2024-01-11T04:54:29;39.92;;;19.60;;
20369;SDS011;10344;47.592;9.600;2024-01-11T04:56:55;36.97;;;18.77;;
20369;SDS011;10344;47.592;9.600;2024-01-11T04:59:21;38.93;;;20.20;;
20369;SDS011;10344;47.592;9.600;2024-01-11T05:01:46;38.38;;;19.05;;
20369;SDS011;10344;47.592;9.600;2024-01-11T05:04:14;36.22;;;18.67;;
20369;SDS011;10344;47.592;9.600;2024-01-11T05:06:40;38.45;;;19.80;;
20369;SDS011;10344;47.592;9.600;2024-01-11T05:09:06;38.90;;;19.37;;
20369;SDS011;10344;47.592;9.600;2024-01-11T05:11:32;36.97;;;19.58;;
20369;SDS011;10344;47.592;9.600;2024-01-11T05:13:59;33.78;;;18.00;;
20369;SDS011;10344;47.592;9.600;2024-01-11T05:16:26;35.28;;;18.35;;
20369;SDS011;10344;47.592;9.600;2024-01-11T05:18:53;38.83;;;20.70;;
20369;SDS011;10344;47.592;9.600;2024-01-11T05:21:22;38.33;;;19.47;;
20369;SDS011;10344;47.592;9.600;2024-01-11T05:23:50;35.50;;;18.52;;
20369;SDS011;10344;47.592;9.600;2024-01-11T05:26:18;39.30;;;19.47;;
20369;SDS011;10344;47.592;9.600;2024-01-11T05:28:46;35.17;;;18.75;;
20369;SDS011;10344;47.592;9.600;2024-01-11T05:31:12;37.83;;;19.67;;
20369;SDS011;10344;47.592;9.600;2024-01-11T05:33:42;40.17;;;20.27;;
20369;SDS011;10344;47.592;9.600;2024-01-11T05:36:08;38.35;;;19.55;;
20369;SDS011;10344;47.592;9.600;2024-01-11T05:38:34;39.63;;;20.10;;
20369;SDS011;10344;47.592;9.600;2024-01-11T05:41:03;42.92;;;20.02;;
20369;SDS011;10344;47.592;9.600;2024-01-11T05:43:31;37.53;;;19.00;;
20369;SDS011;10344;47.592;9.600;2024-01-11T05:45:56;36.22;;;18.17;;
20369;SDS011;10344;47.592;9.600;2024-01-11T05:48:23;39.72;;;18.73;;
20369;SDS011;10344;47.592;9.600;2024-01-11T05:50:49;40.25;;;18.20;;
20369;SDS011;10344;47.592;9.600;2024-01-11T05:53:15;38.37;;;17.67;;
20369;SDS011;10344;47.592;9.600;2024-01-11T05:55:42;34.97;;;17.27;;
20369;SDS011;10344;47.592;9.600;2024-01-11T05:58:07;35.17;;;18.52;;
20369;SDS011;10344;47.592;9.600;2024-01-11T06:00:33;35.10;;;18.73;;
20369;SDS011;10344;47.592;9.600;2024-01-11T06:02:59;33.13;;;17.23;;
20369;SDS011;10344;47.592;9.600;2024-01-11T06:05:25;34.28;;;17.27;;
20369;SDS011;10344;47.592;9.600;2024-01-11T06:07:51;34.15;;;17.38;;
20369;SDS011;10344;47.592;9.600;2024-01-11T06:10:16;36.33;;;17.52;;
20369;SDS011;10344;47.592;9.600;2024-01-11T06:12:42;31.80;;;17.13;;
20369;SDS011;10344;47.592;9.600;2024-01-11T06:15:08;31.07;;;16.17;;
20369;SDS011;10344;47.592;9.600;2024-01-11T06:17:34;34.80;;;16.85;;
20369;SDS011;10344;47.592;9.600;2024-01-11T06:20:03;37.50;;;17.50;;
20369;SDS011;10344;47.592;9.600;2024-01-11T06:22:30;32.08;;;16.27;;
20369;SDS011;10344;47.592;9.600;2024-01-11T06:24:55;32.65;;;16.25;;
20369;SDS011;10344;47.592;9.600;2024-01-11T06:27:24;30.90;;;16.85;;
20369;SDS011;10344;47.592;9.600;2024-01-11T06:29:50;32.10;;;16.10;;
20369;SDS011;10344;47.592;9.600;2024-01-11T06:32:15;33.80;;;16.93;;
20369;SDS011;10344;47.592;9.600;2024-01-11T06:34:43;33.00;;;16.85;;
20369;SDS011;10344;47.592;9.600;2024-01-11T06:37:11;35.38;;;17.42;;
20369;SDS011;10344;47.592;9.600;2024-01-11T06:39:39;32.33;;;16.30;;
20369;SDS011;10344;47.592;9.600;2024-01-11T06:42:07;31.70;;;15.80;;
20369;SDS011;10344;47.592;9.600;2024-01-11T06:44:32;30.48;;;15.15;;
20369;SDS011;10344;47.592;9.600;2024-01-11T06:46:58;30.35;;;15.40;;
20369;SDS011;10344;47.592;9.600;2024-01-11T06:49:24;32.85;;;16.42;;
20369;SDS011;10344;47.592;9.600;2024-01-11T06:51:50;30.48;;;15.77;;
20369;SDS011;10344;47.592;9.600;2024-01-11T06:54:15;28.83;;;14.93;;
20369;SDS011;10344;47.592;9.600;2024-01-11T06:56:41;28.13;;;14.73;;
20369;SDS011;10344;47.592;9.600;2024-01-11T06:59:07;30.55;;;15.65;;
20369;SDS011;10344;47.592;9.600;2024-01-11T07:01:32;28.20;;;14.50;;
20369;SDS011;10344;47.592;9.600;2024-01-11T07:03:58;29.75;;;15.32;;
20369;SDS011;10344;47.592;9.600;2024-01-11T07:06:26;30.50;;;15.25;;
20369;SDS011;10344;47.592;9.600;2024-01-11T07:08:54;30.53;;;15.30;;
20369;SDS011;10344;47.592;9.600;2024-01-11T07:11:20;32.33;;;15.68;;
20369;SDS011;10344;47.592;9.600;2024-01-11T07:13:45;31.87;;;15.77;;
20369;SDS011;10344;47.592;9.600;2024-01-11T07:16:13;27.27;;;15.10;;
20369;SDS011;10344;47.592;9.600;2024-01-11T07:18:41;26.25;;;15.35;;
20369;SDS011;10344;47.592;9.600;2024-01-11T07:21:07;31.63;;;14.88;;
20369;SDS011;10344;47.592;9.600;2024-01-11T07:23:35;30.77;;;15.75;;
20369;SDS011;10344;47.592;9.600;2024-01-11T07:26:03;31.55;;;15.88;;
20369;SDS011;10344;47.592;9.600;2024-01-11T07:28:28;31.42;;;16.13;;
20369;SDS011;10344;47.592;9.600;2024-01-11T07:30:54;32.57;;;16.10;;
20369;SDS011;10344;47.592;9.600;2024-01-11T07:33:20;29.10;;;15.32;;
20369;SDS011;10344;47.592;9.600;2024-01-11T07:35:46;30.10;;;15.15;;
20369;SDS011;10344;47.592;9.600;2024-01-11T07:38:12;29.05;;;14.40;;
20369;SDS011;10344;47.592;9.600;2024-01-11T07:40:38;28.57;;;15.40;;
20369;SDS011;10344;47.592;9.600;2024-01-11T07:43:04;28.88;;;15.38;;
20369;SDS011;10344;47.592;9.600;2024-01-11T07:45:33;30.52;;;15.85;;
20369;SDS011;10344;47.592;9.600;2024-01-11T07:47:59;27.60;;;13.93;;
20369;SDS011;10344;47.592;9.600;2024-01-11T07:50:25;29.38;;;14.65;;
20369;SDS011;10344;47.592;9.600;2024-01-11T07:52:50;30.47;;;15.67;;
20369;SDS011;10344;47.592;9.600;2024-01-11T07:55:16;31.35;;;15.52;;
20369;SDS011;10344;47.592;9.600;2024-01-11T07:57:42;31.03;;;15.33;;
20369;SDS011;10344;47.592;9.600;2024-01-11T08:00:10;33.17;;;15.38;;
20369;SDS011;10344;47.592;9.600;2024-01-11T08:02:35;31.23;;;15.77;;
20369;SDS011;10344;47.592;9.600;2024-01-11T08:05:02;31.08;;;15.10;;
20369;SDS011;10344;47.592;9.600;2024-01-11T08:07:29;30.25;;;15.10;;
20369;SDS011;10344;47.592;9.600;2024-01-11T08:09:55;31.23;;;15.20;;
20369;SDS011;10344;47.592;9.600;2024-01-11T08:12:21;29.65;;;16.40;;
20369;SDS011;10344;47.592;9.600;2024-01-11T08:14:47;29.98;;;15.57;;
20369;SDS011;10344;47.592;9.600;2024-01-11T08:17:13;28.40;;;15.90;;
20369;SDS011;10344;47.592;9.600;2024-01-11T08:19:39;30.10;;;16.80;;
20369;SDS011;10344;47.592;9.600;2024-01-11T08:22:08;27.15;;;14.95;;
20369;SDS011;10344;47.592;9.600;2024-01-11T08:24:34;30.70;;;15.43;;
20369;SDS011;10344;47.592;9.600;2024-01-11T08:27:00;29.90;;;15.50;;
20369;SDS011;10344;47.592;9.600;2024-01-11T08:29:26;31.10;;;16.05;;
20369;SDS011;10344;47.592;9.600;2024-01-11T08:31:54;28.05;;;15.27;;
20369;SDS011;10344;47.592;9.600;2024-01-11T08:34:21;32.45;;;16.70;;
20369;SDS011;10344;47.592;9.600;2024-01-11T08:36:47;32.88;;;15.75;;
20369;SDS011;10344;47.592;9.600;2024-01-11T08:39:13;31.80;;;16.17;;
20369;SDS011;10344;47.592;9.600;2024-01-11T08:41:39;31.98;;;16.00;;
20369;SDS011;10344;47.592;9.600;2024-01-11T08:44:05;28.63;;;15.17;;
20369;SDS011;10344;47.592;9.600;2024-01-11T08:46:31;29.57;;;15.80;;
20369;SDS011;10344;47.592;9.600;2024-01-11T08:48:58;29.80;;;16.27;;
20369;SDS011;10344;47.592;9.600;2024-01-11T08:51:29;27.42;;;15.13;;
20369;SDS011;10344;47.592;9.600;2024-01-11T08:54:02;30.80;;;15.17;;
20369;SDS011;10344;47.592;9.600;2024-01-11T08:56:29;28.63;;;15.15;;
20369;SDS011;10344;47.592;9.600;2024-01-11T08:58:54;31.60;;;16.05;;
20369;SDS011;10344;47.592;9.600;2024-01-11T09:01:20;31.27;;;14.97;;
20369;SDS011;10344;47.592;9.600;2024-01-11T09:03:53;29.75;;;15.40;;
20369;SDS011;10344;47.592;9.600;2024-01-11T09:06:20;29.58;;;14.45;;
20369;SDS011;10344;47.592;9.600;2024-01-11T09:08:46;29.20;;;15.07;;
20369;SDS011;10344;47.592;9.600;2024-01-11T09:11:11;27.73;;;14.20;;
20369;SDS011;10344;47.592;9.600;2024-01-11T09:13:40;27.80;;;15.25;;
20369;SDS011;10344;47.592;9.600;2024-01-11T09:16:05;30.30;;;15.00;;
20369;SDS011;10344;47.592;9.600;2024-01-11T09:18:32;29.05;;;14.63;;
20369;SDS011;10344;47.592;9.600;2024-01-11T09:21:00;25.55;;;14.38;;
20369;SDS011;10344;47.592;9.600;2024-01-11T09:23:26;29.33;;;15.07;;
20369;SDS011;10344;47.592;9.600;2024-01-11T09:25:51;28.33;;;15.03;;
20369;SDS011;10344;47.592;9.600;2024-01-11T09:28:17;25.65;;;14.15;;
20369;SDS011;10344;47.592;9.600;2024-01-11T09:30:43;26.17;;;14.25;;
20369;SDS011;10344;47.592;9.600;2024-01-11T09:33:09;27.63;;;13.88;;
20369;SDS011;10344;47.592;9.600;2024-01-11T09:35:34;28.43;;;14.07;;
20369;SDS011;10344;47.592;9.600;2024-01-11T09:38:00;25.50;;;13.88;;
20369;SDS011;10344;47.592;9.600;2024-01-11T09:40:26;25.85;;;13.88;;
20369;SDS011;10344;47.592;9.600;2024-01-11T09:42:51;26.60;;;13.60;;
20369;SDS011;10344;47.592;9.600;2024-01-11T09:45:17;28.23;;;14.38;;
20369;SDS011;10344;47.592;9.600;2024-01-11T09:47:45;29.08;;;14.85;;
20369;SDS011;10344;47.592;9.600;2024-01-11T09:50:13;28.20;;;14.00;;
20369;SDS011;10344;47.592;9.600;2024-01-11T09:52:44;27.92;;;14.68;;
20369;SDS011;10344;47.592;9.600;2024-01-11T09:55:12;25.92;;;13.50;;
20369;SDS011;10344;47.592;9.600;2024-01-11T09:57:38;27.05;;;14.50;;
20369;SDS011;10344;47.592;9.600;2024-01-11T10:00:09;26.23;;;13.25;;
20369;SDS011;10344;47.592;9.600;2024-01-11T10:02:38;26.08;;;14.25;;
20369;SDS011;10344;47.592;9.600;2024-01-11T10:05:04;25.42;;;13.88;;
20369;SDS011;10344;47.592;9.600;2024-01-11T10:07:30;24.20;;;13.48;;
20369;SDS011;10344;47.592;9.600;2024-01-11T10:09:59;25.27;;;13.57;;
20369;SDS011;10344;47.592;9.600;2024-01-11T10:12:25;25.42;;;13.32;;
20369;SDS011;10344;47.592;9.600;2024-01-11T10:14:52;25.73;;;13.00;;
20369;SDS011;10344;47.592;9.600;2024-01-11T10:17:18;26.77;;;12.83;;
20369;SDS011;10344;47.592;9.600;2024-01-11T10:19:44;25.48;;;13.52;;
20369;SDS011;10344;47.592;9.600;2024-01-11T10:22:10;24.38;;;13.00;;
20369;SDS011;10344;47.592;9.600;2024-01-11T10:24:38;21.65;;;12.00;;
20369;SDS011;10344;47.592;9.600;2024-01-11T10:27:04;24.70;;;12.50;;
20369;SDS011;10344;47.592;9.600;2024-01-11T10:29:33;23.48;;;12.65;;
20369;SDS011;10344;47.592;9.600;2024-01-11T10:32:03;23.13;;;12.97;;
20369;SDS011;10344;47.592;9.600;2024-01-11T10:34:29;33.35;;;19.55;;
20369;SDS011;10344;47.592;9.600;2024-01-11T10:36:55;25.15;;;14.13;;
20369;SDS011;10344;47.592;9.600;2024-01-11T10:39:23;22.08;;;13.18;;
20369;SDS011;10344;47.592;9.600;2024-01-11T10:41:51;24.27;;;12.93;;
20369;SDS011;10344;47.592;9.600;2024-01-11T10:44:21;22.65;;;12.07;;
20369;SDS011;10344;47.592;9.600;2024-01-11T10:46:48;20.98;;;11.95;;
20369;SDS011;10344;47.592;9.600;2024-01-11T10:49:19;19.88;;;11.25;;
20369;SDS011;10344;47.592;9.600;2024-01-11T10:51:45;19.73;;;11.27;;
20369;SDS011;10344;47.592;9.600;2024-01-11T10:54:21;20.98;;;10.88;;
20369;SDS011;10344;47.592;9.600;2024-01-11T10:56:48;17.55;;;10.57;;
20369;SDS011;10344;47.592;9.600;2024-01-11T10:59:14;18.83;;;10.70;;
20369;SDS011;10344;47.592;9.600;2024-01-11T11:01:43;17.95;;;10.77;;
20369;SDS011;10344;47.592;9.600;2024-01-11T11:04:12;18.90;;;10.93;;
20369;SDS011;10344;47.592;9.600;2024-01-11T11:06:39;18.38;;;10.80;;
20369;SDS011;10344;47.592;9.600;2024-01-11T11:09:07;21.25;;;11.43;;
20369;SDS011;10344;47.592;9.600;2024-01-11T11:11:33;19.70;;;11.38;;
20369;SDS011;10344;47.592;9.600;2024-01-11T11:14:00;21.45;;;11.90;;
20369;SDS011;10344;47.592;9.600;2024-01-11T11:16:26;20.15;;;11.55;;
20369;SDS011;10344;47.592;9.600;2024-01-11T11:18:54;20.42;;;11.98;;
20369;SDS011;10344;47.592;9.600;2024-01-11T11:21:23;20.45;;;11.23;;
20369;SDS011;10344;47.592;9.600;2024-01-11T11:23:50;18.25;;;10.73;;
20369;SDS011;10344;47.592;9.600;2024-01-11T11:26:16;19.70;;;11.05;;
20369;SDS011;10344;47.592;9.600;2024-01-11T11:28:44;18.80;;;11.02;;
20369;SDS011;10344;47.592;9.600;2024-01-11T11:31:11;21.70;;;11.23;;
20369;SDS011;10344;47.592;9.600;2024-01-11T11:33:37;22.50;;;12.30;;
20369;SDS011;10344;47.592;9.600;2024-01-11T11:36:03;20.83;;;11.68;;
20369;SDS011;10344;47.592;9.600;2024-01-11T11:38:39;20.85;;;11.93;;
20369;SDS011;10344;47.592;9.600;2024-01-11T11:41:04;20.43;;;11.53;;
20369;SDS011;10344;47.592;9.600;2024-01-11T11:43:30;20.58;;;11.60;;
20369;SDS011;10344;47.592;9.600;2024-01-11T11:45:57;20.47;;;11.77;;
20369;SDS011;10344;47.592;9.600;2024-01-11T11:51:09;30.65;;;16.10;;
20369;SDS011;10344;47.592;9.600;2024-01-11T11:53:36;22.10;;;12.23;;
20369;SDS011;10344;47.592;9.600;2024-01-11T11:56:04;21.90;;;12.55;;
20369;SDS011;10344;47.592;9.600;2024-01-11T11:58:32;22.10;;;12.48;;
20369;SDS011;10344;47.592;9.600;2024-01-11T12:00:59;19.50;;;11.35;;
20369;SDS011;10344;47.592;9.600;2024-01-11T12:03:29;19.05;;;11.15;;
20369;SDS011;10344;47.592;9.600;2024-01-11T12:06:02;20.27;;;11.68;;
20369;SDS011;10344;47.592;9.600;2024-01-11T12:08:29;20.08;;;11.82;;
20369;SDS011;10344;47.592;9.600;2024-01-11T12:10:55;20.30;;;11.55;;
20369;SDS011;10344;47.592;9.600;2024-01-11T12:13:21;21.25;;;12.10;;
20369;SDS011;10344;47.592;9.600;2024-01-11T12:15:47;20.02;;;12.27;;
20369;SDS011;10344;47.592;9.600;2024-01-11T12:18:13;22.37;;;12.37;;
20369;SDS011;10344;47.592;9.600;2024-01-11T12:20:39;19.73;;;11.98;;
20369;SDS011;10344;47.592;9.600;2024-01-11T12:23:04;20.70;;;11.40;;
20369;SDS011;10344;47.592;9.600;2024-01-11T12:25:35;20.67;;;11.65;;
20369;SDS011;10344;47.592;9.600;2024-01-11T12:28:01;20.13;;;11.48;;
20369;SDS011;10344;47.592;9.600;2024-01-11T12:30:31;22.25;;;12.57;;
20369;SDS011;10344;47.592;9.600;2024-01-11T12:32:56;22.60;;;12.65;;
20369;SDS011;10344;47.592;9.600;2024-01-11T12:35:22;19.00;;;11.32;;
20369;SDS011;10344;47.592;9.600;2024-01-11T12:38:21;18.75;;;10.98;;
20369;SDS011;10344;47.592;9.600;2024-01-11T12:40:40;18.90;;;11.20;;
20369;SDS011;10344;47.592;9.600;2024-01-11T12:43:06;18.53;;;10.97;;
20369;SDS011;10344;47.592;9.600;2024-01-11T12:45:33;17.50;;;10.20;;
20369;SDS011;10344;47.592;9.600;2024-01-11T12:48:06;17.75;;;9.82;;
20369;SDS011;10344;47.592;9.600;2024-01-11T12:50:34;17.50;;;9.88;;
20369;SDS011;10344;47.592;9.600;2024-01-11T12:53:10;16.80;;;10.02;;
20369;SDS011;10344;47.592;9.600;2024-01-11T12:55:43;15.68;;;10.15;;
20369;SDS011;10344;47.592;9.600;2024-01-11T12:58:19;17.90;;;10.60;;
20369;SDS011;10344;47.592;9.600;2024-01-11T13:00:46;15.98;;;10.15;;
20369;SDS011;10344;47.592;9.600;2024-01-11T13:03:14;16.65;;;10.13;;
20369;SDS011;10344;47.592;9.600;2024-01-11T13:05:40;15.67;;;9.63;;
20369;SDS011;10344;47.592;9.600;2024-01-11T13:08:08;16.00;;;9.10;;
20369;SDS011;10344;47.592;9.600;2024-01-11T13:10:34;14.55;;;9.00;;
20369;SDS011;10344;47.592;9.600;2024-01-11T13:13:01;15.23;;;8.88;;
20369;SDS011;10344;47.592;9.600;2024-01-11T13:15:33;13.63;;;8.15;;
20369;SDS011;10344;47.592;9.600;2024-01-11T13:18:02;14.50;;;8.88;;
20369;SDS011;10344;47.592;9.600;2024-01-11T13:20:30;15.43;;;8.87;;
20369;SDS011;10344;47.592;9.600;2024-01-11T13:25:42;14.07;;;8.68;;
20369;SDS011;10344;47.592;9.600;2024-01-11T13:28:09;15.40;;;9.20;;
20369;SDS011;10344;47.592;9.600;2024-01-11T13:30:36;13.80;;;8.73;;
20369;SDS011;10344;47.592;9.600;2024-01-11T13:33:06;13.90;;;8.38;;
20369;SDS011;10344;47.592;9.600;2024-01-11T13:35:39;15.27;;;9.05;;
20369;SDS011;10344;47.592;9.600;2024-01-11T13:38:06;12.88;;;8.70;;
20369;SDS011;10344;47.592;9.600;2024-01-11T13:40:31;14.77;;;8.27;;
20369;SDS011;10344;47.592;9.600;2024-01-11T13:42:58;14.43;;;8.48;;
20369;SDS011;10344;47.592;9.600;2024-01-11T13:45:26;14.60;;;8.90;;
20369;SDS011;10344;47.592;9.600;2024-01-11T13:47:53;13.63;;;8.55;;
20369;SDS011;10344;47.592;9.600;2024-01-11T13:50:22;13.20;;;8.32;;
20369;SDS011;10344;47.592;9.600;2024-01-11T13:52:50;12.48;;;7.78;;
20369;SDS011;10344;47.592;9.600;2024-01-11T13:55:17;14.43;;;8.73;;
20369;SDS011;10344;47.592;9.600;2024-01-11T13:57:43;16.42;;;9.85;;
20369;SDS011;10344;47.592;9.600;2024-01-11T14:00:09;13.70;;;8.48;;
20369;SDS011;10344;47.592;9.600;2024-01-11T14:02:38;15.73;;;9.15;;
20369;SDS011;10344;47.592;9.600;2024-01-11T14:05:05;15.75;;;9.68;;
20369;SDS011;10344;47.592;9.600;2024-01-11T14:07:34;14.27;;;8.93;;
20369;SDS011;10344;47.592;9.600;2024-01-11T14:10:00;14.93;;;8.73;;
20369;SDS011;10344;47.592;9.600;2024-01-11T14:12:29;15.55;;;9.30;;
20369;SDS011;10344;47.592;9.600;2024-01-11T14:14:54;14.82;;;8.70;;
20369;SDS011;10344;47.592;9.600;2024-01-11T14:17:20;14.80;;;8.00;;
20369;SDS011;10344;47.592;9.600;2024-01-11T14:19:48;13.45;;;7.70;;
20369;SDS011;10344;47.592;9.600;2024-01-11T14:22:13;13.98;;;8.05;;
20369;SDS011;10344;47.592;9.600;2024-01-11T14:24:41;12.18;;;7.35;;
20369;SDS011;10344;47.592;9.600;2024-01-11T14:27:13;12.23;;;7.80;;